PWSweather.com
Personal Weather Stations
Station Observations
ME1989
Sicily, Barcellona Pozzo Di GottoIT

SicilyBarcellona Pozzo Di GottoIT

Lat: 38.1487398, Lon: 15.2113962

Elevation: 131

Station Type: Peet Bros

Latest ConditionsUpdated 3:50:00 PM GMT+01:01 Saturday, Feb 13, 2016
Currently Today's Max Today's Min Today's Average
Temperature 62.5°F16.9°C 67.8°F19.9°C 59.2°F15.1°C 63.8°F17.7°C
Dew Point 57.9°F14.4°C 58.2°F14.6°C 46.9°F8.3°C 53.4°F11.9°C
Winds 6.9 mph NW11.1 kmh NW 17.3 mph WNW27.8 kmh WNW - 7.3 mph 11.7 kmh
Wind Gusts 9.2 mph14.8 kmh 25.3 mph40.7 kmh - -
Humidity 85% 85% 57% 69%
Pressure 29.74 in1007.1 mb 29.80 in1009.1 mb 29.68 in1005.1 mb -
Precipitation - 0.01 in0.3 mm - -
Hour Temp Dew Point Humidity Winds Wind Gusts Pressure Precip Precip Rate Daily Precip Total
03:50 PM 62.5°F16.9°C 57.9°F14.4°C 85% 6.9 mph NW11.1 kmh NW 9.2 mph14.8 kmh 29.74 in1007.1 mb - 0.00 in0.0 mm 0.01 in0.3 mm
03:40 PM 62.8°F17.1°C 57.9°F14.4°C 84% 6.9 mph SW11.1 kmh SW 6.9 mph11.1 kmh 29.74 in1007.1 mb - 0.00 in0.0 mm 0.01 in0.3 mm
03:30 PM 63.1°F17.3°C 58.2°F14.6°C 84% 4.6 mph W7.4 kmh W 4.6 mph7.4 kmh 29.74 in1007.1 mb - 0.00 in0.0 mm 0.01 in0.3 mm
03:20 PM 62.9°F17.2°C 58.0°F14.4°C 84% 9.2 mph NW14.8 kmh NW 12.7 mph20.4 kmh 29.74 in1007.1 mb - 0.00 in0.0 mm 0.01 in0.3 mm
03:10 PM 62.9°F17.2°C 58.0°F14.4°C 84% 9.2 mph NW14.8 kmh NW 12.7 mph20.4 kmh 29.73 in1006.8 mb - 0.00 in0.0 mm 0.01 in0.3 mm
03:00 PM 63.4°F17.4°C 57.8°F14.3°C 82% 9.2 mph N14.8 kmh N 11.5 mph18.5 kmh 29.73 in1006.8 mb - 0.00 in0.0 mm 0.01 in0.3 mm
02:50 PM 64.4°F18.0°C 58.1°F14.5°C 80% 4.6 mph WSW7.4 kmh WSW 5.8 mph9.3 kmh 29.73 in1006.8 mb - 0.00 in0.0 mm 0.01 in0.3 mm
02:40 PM 64.5°F18.1°C 58.2°F14.6°C 80% 3.5 mph NW5.6 kmh NW 6.9 mph11.1 kmh 29.73 in1006.8 mb - 0.00 in0.0 mm 0.01 in0.3 mm
02:30 PM 64.2°F17.9°C 57.9°F14.4°C 80% 1.2 mph NNW1.9 kmh NNW 3.5 mph5.6 kmh 29.73 in1006.8 mb - 0.00 in0.0 mm 0.01 in0.3 mm
02:20 PM 63.7°F17.6°C 57.4°F14.1°C 80% 4.6 mph SW7.4 kmh SW 5.8 mph9.3 kmh 29.73 in1006.8 mb - 0.00 in0.0 mm 0.01 in0.3 mm
02:10 PM 63.8°F17.7°C 57.5°F14.2°C 80% 3.5 mph NW5.6 kmh NW 4.6 mph7.4 kmh 29.73 in1006.8 mb - 0.00 in0.0 mm 0.01 in0.3 mm
02:00 PM 64.2°F17.9°C 57.5°F14.2°C 79% 3.5 mph WSW5.6 kmh WSW 5.8 mph9.3 kmh 29.73 in1006.8 mb - 0.00 in0.0 mm 0.01 in0.3 mm
01:50 PM 65.2°F18.4°C 58.2°F14.6°C 78% 2.3 mph NW3.7 kmh NW 3.5 mph5.6 kmh 29.72 in1006.4 mb - 0.00 in0.0 mm 0.01 in0.3 mm
01:40 PM 64.5°F18.1°C 58.2°F14.6°C 80% 5.8 mph WNW9.3 kmh WNW 9.2 mph14.8 kmh 29.72 in1006.4 mb - 0.00 in0.0 mm 0.01 in0.3 mm
01:30 PM 64.4°F18.0°C 58.1°F14.5°C 80% 5.8 mph NW9.3 kmh NW 10.4 mph16.7 kmh 29.71 in1006.1 mb - 0.00 in0.0 mm 0.01 in0.3 mm
01:20 PM 64.6°F18.1°C 57.6°F14.2°C 78% 6.9 mph NW11.1 kmh NW 8.1 mph13.0 kmh 29.71 in1006.1 mb - 0.00 in0.0 mm 0.01 in0.3 mm
01:10 PM 65.5°F18.6°C 57.0°F13.9°C 74% 13.8 mph WNW22.2 kmh WNW 23.0 mph37.0 kmh 29.71 in1006.1 mb - 0.00 in0.0 mm 0.01 in0.3 mm
01:00 PM 65.7°F18.7°C 56.5°F13.6°C 72% 16.1 mph W25.9 kmh W 23.0 mph37.0 kmh 29.71 in1006.1 mb - 0.00 in0.0 mm 0.01 in0.3 mm
12:50 PM 65.1°F18.4°C 57.0°F13.9°C 75% 16.1 mph NW25.9 kmh NW 24.2 mph38.9 kmh 29.71 in1006.1 mb - 0.00 in0.0 mm 0.01 in0.3 mm
12:40 PM 64.8°F18.2°C 56.7°F13.7°C 75% 17.3 mph WNW27.8 kmh WNW 25.3 mph40.7 kmh 29.71 in1006.1 mb - 0.00 in0.0 mm 0.01 in0.3 mm
12:30 PM 65.0°F18.3°C 56.9°F13.8°C 75% 12.7 mph NW20.4 kmh NW 19.6 mph31.5 kmh 29.71 in1006.1 mb - 0.00 in0.0 mm 0.01 in0.3 mm
12:20 PM 64.9°F18.3°C 56.8°F13.8°C 75% 15.0 mph NW24.1 kmh NW 21.9 mph35.2 kmh 29.72 in1006.4 mb - 0.00 in0.0 mm 0.01 in0.3 mm
12:10 PM 65.0°F18.3°C 56.9°F13.8°C 75% 15.0 mph WNW24.1 kmh WNW 24.2 mph38.9 kmh 29.71 in1006.1 mb - 0.00 in0.0 mm 0.01 in0.3 mm
12:00 PM 64.2°F17.9°C 56.9°F13.8°C 77% 13.8 mph WNW22.2 kmh WNW 19.6 mph31.5 kmh 29.71 in1006.1 mb - 0.00 in0.0 mm 0.01 in0.3 mm
11:50 AM 64.2°F17.9°C 56.5°F13.6°C 76% 13.8 mph WNW22.2 kmh WNW 21.9 mph35.2 kmh 29.71 in1006.1 mb - 0.00 in0.0 mm 0.01 in0.3 mm
11:40 AM 64.1°F17.8°C 56.8°F13.8°C 77% 13.8 mph NW22.2 kmh NW 20.7 mph33.3 kmh 29.71 in1006.1 mb - 0.00 in0.0 mm 0.01 in0.3 mm
11:30 AM 64.4°F18.0°C 56.3°F13.5°C 75% 13.8 mph NW22.2 kmh NW 19.6 mph31.5 kmh 29.70 in1005.8 mb - 0.00 in0.0 mm 0.01 in0.3 mm
11:20 AM 64.8°F18.2°C 57.0°F13.9°C 76% 10.4 mph WNW16.7 kmh WNW 16.1 mph25.9 kmh 29.70 in1005.8 mb - 0.00 in0.0 mm 0.01 in0.3 mm
11:10 AM 65.2°F18.4°C 57.1°F13.9°C 75% 9.2 mph NW14.8 kmh NW 12.7 mph20.4 kmh 29.70 in1005.8 mb - 0.00 in0.0 mm 0.01 in0.3 mm
11:00 AM 64.6°F18.1°C 56.1°F13.4°C 74% 15.0 mph W24.1 kmh W 17.3 mph27.8 kmh 29.69 in1005.4 mb - 0.00 in0.0 mm 0.01 in0.3 mm
10:50 AM 64.9°F18.3°C 56.1°F13.4°C 73% 15.0 mph W24.1 kmh W 23.0 mph37.0 kmh 29.70 in1005.8 mb - 0.00 in0.0 mm 0.01 in0.3 mm
10:40 AM 65.8°F18.8°C 56.1°F13.4°C 71% 13.8 mph W22.2 kmh W 24.2 mph38.9 kmh 29.70 in1005.8 mb - 0.00 in0.0 mm 0.01 in0.3 mm
10:30 AM 66.2°F19.0°C 56.2°F13.4°C 70% 13.8 mph WNW22.2 kmh WNW 19.6 mph31.5 kmh 29.70 in1005.8 mb - 0.00 in0.0 mm 0.01 in0.3 mm
10:20 AM 65.9°F18.8°C 55.9°F13.3°C 70% 13.8 mph WNW22.2 kmh WNW 16.1 mph25.9 kmh 29.69 in1005.4 mb - 0.00 in0.0 mm 0.01 in0.3 mm
10:10 AM 65.2°F18.4°C 56.0°F13.3°C 72% 11.5 mph NW18.5 kmh NW 20.7 mph33.3 kmh 29.70 in1005.8 mb - 0.00 in0.0 mm 0.01 in0.3 mm
10:00 AM 64.8°F18.2°C 55.9°F13.3°C 73% 12.7 mph WNW20.4 kmh WNW 13.8 mph22.2 kmh 29.69 in1005.4 mb - 0.00 in0.0 mm 0.01 in0.3 mm
09:50 AM 65.3°F18.5°C 56.4°F13.6°C 73% 8.1 mph WNW13.0 kmh WNW 12.7 mph20.4 kmh 29.69 in1005.4 mb - 0.00 in0.0 mm 0.01 in0.3 mm
09:40 AM 65.4°F18.6°C 56.1°F13.4°C 72% 5.8 mph NW9.3 kmh NW 9.2 mph14.8 kmh 29.69 in1005.4 mb - 0.00 in0.0 mm 0.01 in0.3 mm
09:30 AM 64.9°F18.3°C 56.1°F13.4°C 73% 6.9 mph NW11.1 kmh NW 10.4 mph16.7 kmh 29.69 in1005.4 mb - 0.00 in0.0 mm 0.01 in0.3 mm
09:20 AM 65.7°F18.7°C 55.7°F13.2°C 70% 5.8 mph NW9.3 kmh NW 8.1 mph13.0 kmh 29.68 in1005.1 mb - 0.00 in0.0 mm 0.01 in0.3 mm
09:10 AM 67.3°F19.6°C 53.9°F12.2°C 62% 6.9 mph WNW11.1 kmh WNW 10.4 mph16.7 kmh 29.68 in1005.1 mb - 0.00 in0.0 mm 0.01 in0.3 mm
09:00 AM 67.8°F19.9°C 54.3°F12.4°C 62% 2.3 mph NNW3.7 kmh NNW 3.5 mph5.6 kmh 29.68 in1005.1 mb - 0.00 in0.0 mm 0.01 in0.3 mm
08:50 AM 67.1°F19.5°C 53.6°F12.0°C 62% 1.2 mph N1.9 kmh N 1.2 mph1.9 kmh 29.68 in1005.1 mb - 0.00 in0.0 mm 0.01 in0.3 mm
08:40 AM 67.1°F19.5°C 53.7°F12.1°C 62% 3.5 mph NNW5.6 kmh NNW 4.6 mph7.4 kmh 29.69 in1005.4 mb - 0.00 in0.0 mm 0.01 in0.3 mm
08:30 AM 67.4°F19.7°C 52.6°F11.4°C 59% 2.3 mph W3.7 kmh W 3.5 mph5.6 kmh 29.69 in1005.4 mb - 0.00 in0.0 mm 0.01 in0.3 mm
08:20 AM 67.4°F19.7°C 51.6°F10.9°C 57% 4.6 mph WSW7.4 kmh WSW 6.9 mph11.1 kmh 29.69 in1005.4 mb - 0.00 in0.0 mm 0.01 in0.3 mm
08:10 AM 66.9°F19.4°C 51.2°F10.7°C 57% 6.9 mph SSW11.1 kmh SSW 10.4 mph16.7 kmh 29.69 in1005.4 mb - 0.00 in0.0 mm 0.01 in0.3 mm
08:00 AM 66.7°F19.3°C 51.5°F10.8°C 58% 5.8 mph SW9.3 kmh SW 8.1 mph13.0 kmh 29.69 in1005.4 mb - 0.00 in0.0 mm 0.01 in0.3 mm
07:50 AM 66.1°F18.9°C 51.4°F10.8°C 59% 6.9 mph SSW11.1 kmh SSW 12.7 mph20.4 kmh 29.69 in1005.4 mb - 0.00 in0.0 mm 0.01 in0.3 mm
07:40 AM 66.1°F18.9°C 50.9°F10.5°C 58% 6.9 mph S11.1 kmh S 9.2 mph14.8 kmh 29.69 in1005.4 mb - 0.00 in0.0 mm 0.01 in0.3 mm
07:30 AM 65.9°F18.8°C 50.7°F10.4°C 58% 9.2 mph SSW14.8 kmh SSW 13.8 mph22.2 kmh 29.69 in1005.4 mb - 0.00 in0.0 mm 0.01 in0.3 mm
07:20 AM 66.1°F18.9°C 50.9°F10.5°C 58% 6.9 mph SSW11.1 kmh SSW 9.2 mph14.8 kmh 29.69 in1005.4 mb - 0.00 in0.0 mm 0.01 in0.3 mm
07:10 AM 66.4°F19.1°C 50.7°F10.4°C 57% 8.1 mph SSW13.0 kmh SSW 12.7 mph20.4 kmh 29.68 in1005.1 mb - 0.00 in0.0 mm 0.01 in0.3 mm
07:00 AM 66.1°F18.9°C 50.4°F10.2°C 57% 8.1 mph SSW13.0 kmh SSW 11.5 mph18.5 kmh 29.69 in1005.4 mb - 0.00 in0.0 mm 0.01 in0.3 mm
06:50 AM 66.2°F19.0°C 50.5°F10.3°C 57% 8.1 mph SSW13.0 kmh SSW 11.5 mph18.5 kmh 29.69 in1005.4 mb - 0.00 in0.0 mm 0.01 in0.3 mm
06:40 AM 66.2°F19.0°C 51.0°F10.6°C 58% 8.1 mph SW13.0 kmh SW 10.4 mph16.7 kmh 29.69 in1005.4 mb - 0.00 in0.0 mm 0.01 in0.3 mm
06:30 AM 66.0°F18.9°C 50.8°F10.4°C 58% 5.8 mph SW9.3 kmh SW 8.1 mph13.0 kmh 29.69 in1005.4 mb - 0.00 in0.0 mm 0.01 in0.3 mm
06:20 AM 65.9°F18.8°C 50.7°F10.4°C 58% 10.4 mph SW16.7 kmh SW 13.8 mph22.2 kmh 29.69 in1005.4 mb - 0.00 in0.0 mm 0.01 in0.3 mm
06:10 AM 65.8°F18.8°C 50.6°F10.3°C 58% 9.2 mph SW14.8 kmh SW 11.5 mph18.5 kmh 29.70 in1005.8 mb - 0.00 in0.0 mm 0.01 in0.3 mm
06:00 AM 65.7°F18.7°C 51.0°F10.6°C 59% 8.1 mph SSW13.0 kmh SSW 16.1 mph25.9 kmh 29.70 in1005.8 mb - 0.00 in0.0 mm 0.01 in0.3 mm
05:50 AM 65.6°F18.7°C 50.4°F10.2°C 58% 9.2 mph SW14.8 kmh SW 11.5 mph18.5 kmh 29.70 in1005.8 mb - 0.00 in0.0 mm 0.01 in0.3 mm
05:40 AM 65.6°F18.7°C 50.4°F10.2°C 58% 10.4 mph SSW16.7 kmh SSW 13.8 mph22.2 kmh 29.70 in1005.8 mb - 0.00 in0.0 mm 0.01 in0.3 mm
05:30 AM 65.5°F18.6°C 50.3°F10.2°C 58% 10.4 mph SSW16.7 kmh SSW 15.0 mph24.1 kmh 29.70 in1005.8 mb - 0.00 in0.0 mm 0.01 in0.3 mm
05:20 AM 65.2°F18.4°C 50.5°F10.3°C 59% 9.2 mph SSW14.8 kmh SSW 12.7 mph20.4 kmh 29.69 in1005.4 mb - 0.00 in0.0 mm 0.01 in0.3 mm
05:10 AM 64.9°F18.3°C 50.7°F10.4°C 60% 10.4 mph SSW16.7 kmh SSW 15.0 mph24.1 kmh 29.69 in1005.4 mb - 0.00 in0.0 mm 0.01 in0.3 mm
05:00 AM 62.9°F17.2°C 51.8°F11.0°C 67% 6.9 mph SSW11.1 kmh SSW 11.5 mph18.5 kmh 29.70 in1005.8 mb - 0.00 in0.0 mm 0.01 in0.3 mm
04:50 AM 61.1°F16.2°C 52.4°F11.3°C 73% 4.6 mph S7.4 kmh S 6.9 mph11.1 kmh 29.70 in1005.8 mb - 0.00 in0.0 mm 0.01 in0.3 mm
04:40 AM 60.8°F16.0°C 52.5°F11.4°C 74% 4.6 mph SSE7.4 kmh SSE 4.6 mph7.4 kmh 29.70 in1005.8 mb - 0.00 in0.0 mm 0.01 in0.3 mm
04:30 AM 61.0°F16.1°C 52.6°F11.4°C 74% Calm Calm -- 29.71 in1006.1 mb - 0.00 in0.0 mm 0.01 in0.3 mm
04:20 AM 60.9°F16.1°C 52.2°F11.2°C 73% 3.5 mph S5.6 kmh S 3.5 mph5.6 kmh 29.72 in1006.4 mb - 0.00 in0.0 mm 0.01 in0.3 mm
04:10 AM 61.3°F16.3°C 52.2°F11.2°C 72% 3.5 mph SSE5.6 kmh SSE 4.6 mph7.4 kmh 29.72 in1006.4 mb - 0.00 in0.0 mm 0.01 in0.3 mm
04:00 AM 61.3°F16.3°C 51.5°F10.8°C 70% 6.9 mph S11.1 kmh S 8.1 mph13.0 kmh 29.72 in1006.4 mb - 0.00 in0.0 mm 0.01 in0.3 mm
03:50 AM 61.5°F16.4°C 51.7°F10.9°C 70% 4.6 mph S7.4 kmh S 4.6 mph7.4 kmh 29.72 in1006.4 mb - 0.00 in0.0 mm 0.01 in0.3 mm
03:40 AM 61.6°F16.4°C 51.7°F10.9°C 70% 5.8 mph S9.3 kmh S 6.9 mph11.1 kmh 29.73 in1006.8 mb - 0.00 in0.0 mm 0.01 in0.3 mm
03:30 AM 61.7°F16.5°C 51.4°F10.8°C 69% 4.6 mph S7.4 kmh S 5.8 mph9.3 kmh 29.73 in1006.8 mb - 0.00 in0.0 mm 0.01 in0.3 mm
03:20 AM 61.1°F16.2°C 51.6°F10.9°C 71% 4.6 mph WSW7.4 kmh WSW 5.8 mph9.3 kmh 29.74 in1007.1 mb - 0.00 in0.0 mm 0.01 in0.3 mm
03:10 AM 60.1°F15.6°C 52.1°F11.2°C 75% 2.3 mph SW3.7 kmh SW 4.6 mph7.4 kmh 29.74 in1007.1 mb - 0.00 in0.0 mm 0.01 in0.3 mm
03:00 AM 60.5°F15.8°C 51.8°F11.0°C 73% 2.3 mph SSE3.7 kmh SSE 3.5 mph5.6 kmh 29.74 in1007.1 mb - 0.00 in0.0 mm 0.01 in0.3 mm
02:50 AM 60.1°F15.6°C 51.0°F10.6°C 72% 4.6 mph S7.4 kmh S 5.8 mph9.3 kmh 29.75 in1007.5 mb - 0.01 in0.3 mm 0.01 in0.3 mm
02:40 AM 60.0°F15.6°C 51.0°F10.6°C 72% Calm Calm -- 29.75 in1007.5 mb - 0.01 in0.3 mm 0.01 in0.3 mm
02:20 AM 59.6°F15.3°C 50.6°F10.3°C 72% 4.6 mph S7.4 kmh S 5.8 mph9.3 kmh 29.76 in1007.8 mb - 0.00 in0.0 mm 0.00 in0.0 mm
02:10 AM 60.1°F15.6°C 50.2°F10.1°C 70% 3.5 mph S5.6 kmh S 4.6 mph7.4 kmh 29.76 in1007.8 mb - 0.00 in0.0 mm 0.00 in0.0 mm
02:00 AM 60.4°F15.8°C 49.8°F9.9°C 68% 3.5 mph S5.6 kmh S 4.6 mph7.4 kmh 29.76 in1007.8 mb - 0.00 in0.0 mm 0.00 in0.0 mm
01:50 AM 60.3°F15.7°C 48.9°F9.4°C 66% 5.8 mph S9.3 kmh S 5.8 mph9.3 kmh 29.75 in1007.5 mb - 0.00 in0.0 mm 0.00 in0.0 mm
01:40 AM 60.6°F15.9°C 48.8°F9.3°C 65% Calm Calm 4.6 mph7.4 kmh 29.76 in1007.8 mb - 0.00 in0.0 mm 0.00 in0.0 mm
01:30 AM 60.5°F15.8°C 48.7°F9.3°C 65% 4.6 mph S7.4 kmh S 5.8 mph9.3 kmh 29.77 in1008.1 mb - 0.00 in0.0 mm 0.00 in0.0 mm
01:20 AM 61.2°F16.2°C 48.9°F9.4°C 64% 2.3 mph S3.7 kmh S 3.5 mph5.6 kmh 29.77 in1008.1 mb - 0.00 in0.0 mm 0.00 in0.0 mm
01:10 AM 60.8°F16.0°C 48.5°F9.2°C 64% 5.8 mph S9.3 kmh S 5.8 mph9.3 kmh 29.76 in1007.8 mb - 0.00 in0.0 mm 0.00 in0.0 mm
01:00 AM 61.4°F16.3°C 48.3°F9.1°C 62% 4.6 mph S7.4 kmh S 6.9 mph11.1 kmh 29.77 in1008.1 mb - 0.00 in0.0 mm 0.00 in0.0 mm
12:50 AM 61.6°F16.4°C 47.6°F8.7°C 60% 4.6 mph SSW7.4 kmh SSW 4.6 mph7.4 kmh 29.77 in1008.1 mb - 0.00 in0.0 mm 0.00 in0.0 mm
12:40 AM 61.5°F16.4°C 48.3°F9.1°C 62% 1.2 mph SW1.9 kmh SW 1.2 mph1.9 kmh 29.78 in1008.5 mb - 0.00 in0.0 mm 0.00 in0.0 mm
12:30 AM 61.4°F16.3°C 46.9°F8.3°C 59% 6.9 mph SSW11.1 kmh SSW 6.9 mph11.1 kmh 29.79 in1008.8 mb - 0.00 in0.0 mm 0.00 in0.0 mm
12:20 AM 59.9°F15.5°C 48.1°F8.9°C 65% 2.3 mph S3.7 kmh S 4.6 mph7.4 kmh 29.79 in1008.8 mb - 0.00 in0.0 mm 0.00 in0.0 mm
12:10 AM 60.1°F15.6°C 47.9°F8.8°C 64% 4.6 mph S7.4 kmh S 5.8 mph9.3 kmh 29.79 in1008.8 mb - 0.00 in0.0 mm 0.00 in0.0 mm
12:00 AM 59.2°F15.1°C 47.9°F8.8°C 66% 6.9 mph S11.1 kmh S 8.1 mph13.0 kmh 29.80 in1009.1 mb - 0.00 in0.0 mm 0.00 in0.0 mm